Berrien Springs, Michigan
Current Conditions -  °F | °C
As of 12:53 AM on Sunday 26 Oct 2014 (Local Time) from KBEH Reporting Station
Clear Clear  
Wind Chill: 55°   Ceiling: Unl
Heat Index: 55°   Visibility: 10mi
Dew Point: 39°   Wind: 12mph
Humidity: 55%   Direction: 300°WNW
Pressure: 29.93"   Gusts: NA
Location:  41.95°N, 86.34°W
Report Text: KBEH 260453Z AUTO 30010KT 10SM CLR 13/04 A2993 RMK AO2 SLP134 T01280039 401720111
Loading
Personal Weather Stations






























Interactive Weather Map
Tropical Storm Tracking
New forecast layout! Learn more

10-Day Weather Forecast

Advertisements
Track Severe Weather on mobile